Time;durP1;ratioP1;P1;durP2;ratioP2;P2;SDS_P1;SDS_P2;PMS_P1;PMS_P2;Temp;Humidity;BMP_temperature;BMP_pressure;BME280_temperature;BME280_humidity;BME280_pressure;Samples;Min_cycle;Max_cycle;Signal;HPM_P1;HPM_P2
2023/02/10 00:01:56;;;;;;;0.90;0.90;;;1.40;99.90;;;;;;4420630;32;21405;-64
2023/02/10 00:04:22;;;;;;;1.10;1.10;;;1.50;99.90;;;;;;4425212;32;20666;-63
2023/02/10 00:06:47;;;;;;;0.90;0.85;;;1.50;99.90;;;;;;4423123;32;20124;-62
2023/02/10 00:09:14;;;;;;;1.75;1.60;;;1.40;99.90;;;;;;4421841;32;20102;-63
2023/02/10 00:12:12;;;;;;;5.72;3.25;;;1.50;99.90;;;;;;4421357;32;20454;-63
2023/02/10 00:14:27;;;;;;;0.80;0.80;;;1.60;99.90;;;;;;4409443;32;20137;-63
2023/02/10 00:16:53;;;;;;;0.60;0.60;;;1.70;99.90;;;;;;4406693;32;20112;-62
2023/02/10 00:19:20;;;;;;;1.15;0.80;;;1.70;99.90;;;;;;4406148;32;20457;-62
2023/02/10 00:21:45;;;;;;;3.35;1.17;;;1.80;99.90;;;;;;4419972;32;20062;-64
2023/02/10 00:24:11;;;;;;;4.65;1.98;;;1.80;99.90;;;;;;4420375;32;20089;-62
2023/02/10 00:26:36;;;;;;;4.32;2.35;;;1.80;99.90;;;;;;4407701;32;20912;-63
2023/02/10 00:29:03;;;;;;;0.80;0.80;;;1.80;99.90;;;;;;4420177;32;20057;-63
2023/02/10 00:31:29;;;;;;;0.70;0.70;;;1.90;99.90;;;;;;4420321;32;20061;-63
2023/02/10 00:33:54;;;;;;;0.62;0.62;;;1.90;99.90;;;;;;4423823;32;20585;-63
2023/02/10 00:36:21;;;;;;;0.60;0.60;;;1.90;99.90;;;;;;4421210;32;20066;-63
2023/02/10 00:38:48;;;;;;;1.45;1.35;;;1.90;99.90;;;;;;4420173;32;20096;-62
2023/02/10 00:41:16;;;;;;;0.93;0.93;;;1.90;99.90;;;;;;4419341;32;20131;-62
2023/02/10 00:43:43;;;;;;;0.50;0.50;;;1.90;99.90;;;;;;4421121;32;20155;-63
2023/02/10 00:46:09;;;;;;;0.60;0.60;;;1.80;99.90;;;;;;4406448;32;20073;-63
2023/02/10 00:48:35;;;;;;;1.12;1.05;;;1.90;99.90;;;;;;4408131;32;20050;-63
2023/02/10 00:51:01;;;;;;;0.50;0.50;;;1.90;99.90;;;;;;4404193;32;20098;-62
2023/02/10 00:53:26;;;;;;;1.12;1.02;;;2.00;99.90;;;;;;4421762;32;20061;-63
2023/02/10 00:55:52;;;;;;;4.62;2.65;;;2.00;99.90;;;;;;4419876;32;20552;-62
2023/02/10 00:58:17;;;;;;;0.60;0.60;;;2.00;99.90;;;;;;4420063;32;20089;-64
2023/02/10 01:00:44;;;;;;;6.07;1.37;;;2.00;99.90;;;;;;4421124;32;20053;-63
2023/02/10 01:03:09;;;;;;;0.65;0.65;;;2.10;99.90;;;;;;4421590;32;20419;-63
2023/02/10 01:05:35;;;;;;;0.80;0.80;;;2.10;99.90;;;;;;4408416;32;20098;-63
2023/02/10 01:08:00;;;;;;;5.47;1.65;;;2.10;99.90;;;;;;4407595;32;20094;-63
2023/02/10 01:10:26;;;;;;;0.75;0.75;;;2.10;99.90;;;;;;4419055;32;20100;-62
2023/02/10 01:12:52;;;;;;;1.95;1.85;;;2.10;99.90;;;;;;4421281;32;20066;-62
2023/02/10 01:15:17;;;;;;;0.70;0.70;;;2.20;99.90;;;;;;4422567;32;20572;-62
2023/02/10 01:17:43;;;;;;;1.08;1.02;;;2.20;99.90;;;;;;4406578;32;20069;-63
2023/02/10 01:20:09;;;;;;;12.50;1.75;;;2.20;99.90;;;;;;4419692;32;20521;-64
2023/02/10 01:22:35;;;;;;;1.87;1.35;;;2.10;99.90;;;;;;4418400;32;20114;-64
2023/02/10 01:25:02;;;;;;;4.35;1.83;;;2.10;99.90;;;;;;4408983;32;20416;-62
2023/02/10 01:27:27;;;;;;;0.80;0.80;;;2.10;99.90;;;;;;4405921;32;20130;-64
2023/02/10 01:29:53;;;;;;;0.90;0.90;;;2.00;99.90;;;;;;4405147;32;20524;-64
2023/02/10 01:32:18;;;;;;;6.05;2.15;;;2.00;99.90;;;;;;4419536;32;20103;-62
2023/02/10 01:34:44;;;;;;;0.80;0.80;;;1.90;99.90;;;;;;4422526;32;20069;-63
2023/02/10 01:37:09;;;;;;;0.50;0.50;;;1.90;99.90;;;;;;4423104;32;20065;-62
2023/02/10 01:39:35;;;;;;;2.92;1.23;;;1.80;99.90;;;;;;4419557;32;20074;-64
2023/02/10 01:42:01;;;;;;;0.73;0.73;;;1.80;99.90;;;;;;4422132;32;20726;-62
2023/02/10 01:44:29;;;;;;;0.70;0.70;;;1.80;99.90;;;;;;4419640;32;20065;-63
2023/02/10 01:46:55;;;;;;;0.50;0.50;;;1.80;99.90;;;;;;4420147;32;20464;-63
2023/02/10 01:49:25;;;;;;;0.50;0.50;;;1.80;99.90;;;;;;4406293;32;20101;-63
2023/02/10 01:51:59;;;;;;;0.85;0.85;;;1.80;99.90;;;;;;4409268;32;20093;-63
2023/02/10 01:54:30;;;;;;;5.78;1.75;;;1.80;99.90;;;;;;4423092;32;20081;-64
2023/02/10 01:56:55;;;;;;;0.60;0.60;;;1.70;99.90;;;;;;4424465;32;20062;-62
2023/02/10 01:59:25;;;;;;;5.65;2.00;;;1.70;99.90;;;;;;4421961;32;20455;-63
2023/02/10 02:01:51;;;;;;;0.77;0.77;;;1.70;99.90;;;;;;4409652;32;20541;-64
2023/02/10 02:04:17;;;;;;;0.60;0.60;;;1.70;99.90;;;;;;4424270;32;20046;-62
2023/02/10 02:06:42;;;;;;;8.65;1.45;;;1.70;99.90;;;;;;4424026;32;20049;-62
2023/02/10 02:09:09;;;;;;;2.55;1.98;;;1.70;99.90;;;;;;4423632;32;20512;-63
2023/02/10 02:11:47;;;;;;;0.90;0.90;;;1.70;99.90;;;;;;4409299;32;20116;-63
2023/02/10 02:14:49;;;;;;;0.80;0.80;;;1.60;99.90;;;;;;4422805;32;20069;-63
2023/02/10 02:17:40;;;;;;;0.50;0.50;;;1.60;99.90;;;;;;4410774;32;20105;-62
2023/02/10 02:20:55;;;;;;;1.35;1.27;;;1.50;99.90;;;;;;4411583;32;20525;-63
2023/02/10 02:23:31;;;;;;;0.50;0.50;;;1.40;99.90;;;;;;4408722;32;20073;-63
2023/02/10 02:26:28;;;;;;;0.95;0.95;;;1.30;99.90;;;;;;4412231;32;20085;-63
2023/02/10 02:29:12;;;;;;;0.50;0.50;;;1.30;99.90;;;;;;4409828;32;20581;-62
2023/02/10 02:31:45;;;;;;;0.57;0.57;;;1.20;99.90;;;;;;4410286;32;20087;-63
2023/02/10 02:34:34;;;;;;;1.35;1.25;;;1.00;99.90;;;;;;4406553;32;20068;-63
2023/02/10 02:37:05;;;;;;;2.25;1.10;;;1.00;99.90;;;;;;4410152;32;20057;-62
2023/02/10 02:39:32;;;;;;;1.42;1.33;;;0.90;99.90;;;;;;4407820;32;20106;-64
2023/02/10 02:42:16;;;;;;;2.03;0.98;;;1.00;99.90;;;;;;4408058;32;20081;-63
2023/02/10 02:44:45;;;;;;;1.12;1.08;;;1.10;99.90;;;;;;4408331;32;20077;-62
2023/02/10 02:47:22;;;;;;;0.80;0.80;;;1.10;99.90;;;;;;4408125;32;20122;-63
2023/02/10 02:52:22;;;;;;;1.65;1.33;;;0.80;99.90;;;;;;4389850;27;20093;-74
2023/02/10 02:54:57;;;;;;;1.02;1.02;;;0.70;99.90;;;;;;4391378;32;20611;-74
2023/02/10 02:57:44;;;;;;;0.70;0.70;;;0.80;99.90;;;;;;4389089;32;20563;-74
2023/02/10 03:00:15;;;;;;;0.70;0.70;;;0.80;99.90;;;;;;4388000;32;20114;-74
2023/02/10 03:02:41;;;;;;;0.50;0.50;;;0.80;99.90;;;;;;4384563;32;20475;-74
2023/02/10 03:05:08;;;;;;;0.50;0.50;;;0.90;99.90;;;;;;4389567;32;20082;-74
2023/02/10 03:07:33;;;;;;;0.80;0.80;;;1.00;99.90;;;;;;4391305;32;20082;-75
2023/02/10 03:09:59;;;;;;;1.25;1.23;;;1.10;99.90;;;;;;4387020;32;20173;-75
2023/02/10 03:12:24;;;;;;;1.92;1.20;;;1.10;99.90;;;;;;4391694;32;20130;-75
2023/02/10 03:14:49;;;;;;;1.23;1.12;;;1.10;99.90;;;;;;4385491;32;20094;-74
2023/02/10 03:17:16;;;;;;;0.70;0.70;;;1.10;99.90;;;;;;4390893;32;20094;-74
2023/02/10 03:19:41;;;;;;;1.90;1.37;;;1.10;99.90;;;;;;4388421;32;20226;-74
2023/02/10 03:22:07;;;;;;;0.73;0.73;;;1.10;99.90;;;;;;4384107;32;20137;-75
2023/02/10 03:24:32;;;;;;;0.82;0.82;;;1.00;99.90;;;;;;4376980;32;20090;-74
2023/02/10 03:26:58;;;;;;;1.05;1.05;;;1.10;99.90;;;;;;4380618;32;20470;-74
2023/02/10 03:29:23;;;;;;;1.50;1.40;;;1.10;99.90;;;;;;4381128;32;20063;-74
2023/02/10 03:31:49;;;;;;;0.70;0.70;;;1.20;99.90;;;;;;4381392;32;21445;-74
2023/02/10 03:34:16;;;;;;;0.73;0.73;;;1.10;99.90;;;;;;4382043;32;20094;-74
2023/02/10 03:36:41;;;;;;;4.75;1.00;;;1.20;99.90;;;;;;4382396;32;20098;-74
2023/02/10 03:39:06;;;;;;;0.88;0.88;;;1.20;99.90;;;;;;4383185;32;20124;-74
2023/02/10 03:41:32;;;;;;;1.60;1.17;;;1.20;99.90;;;;;;4381473;32;20113;-75
2023/02/10 03:43:58;;;;;;;0.85;0.85;;;1.20;99.90;;;;;;4380787;32;20235;-74
2023/02/10 03:46:23;;;;;;;1.52;1.42;;;1.10;99.90;;;;;;4381810;32;20549;-74
2023/02/10 03:48:49;;;;;;;1.45;1.08;;;1.20;99.90;;;;;;4382104;32;20097;-74
2023/02/10 03:51:14;;;;;;;1.15;1.02;;;1.20;99.90;;;;;;4381243;32;20114;-75
2023/02/10 03:53:40;;;;;;;3.55;1.92;;;1.20;99.90;;;;;;4381763;32;20100;-74
2023/02/10 03:56:06;;;;;;;9.75;3.58;;;1.20;99.90;;;;;;4381470;32;20099;-74
2023/02/10 03:58:32;;;;;;;0.73;0.73;;;1.20;99.90;;;;;;4382229;32;20355;-74
2023/02/10 04:00:57;;;;;;;19.87;3.28;;;1.20;99.90;;;;;;4385712;32;20113;-74
2023/02/10 04:03:23;;;;;;;1.00;1.00;;;1.20;99.90;;;;;;4380563;32;20473;-74
2023/02/10 04:05:48;;;;;;;0.55;0.55;;;1.20;99.90;;;;;;4382487;32;20071;-74
2023/02/10 04:08:15;;;;;;;0.68;0.68;;;1.20;99.90;;;;;;4382683;32;20496;-74
2023/02/10 04:10:41;;;;;;;1.45;1.08;;;1.30;99.90;;;;;;4383577;32;20514;-74
2023/02/10 04:13:06;;;;;;;9.60;1.33;;;1.30;99.90;;;;;;4384538;32;20107;-74
2023/02/10 04:15:32;;;;;;;3.67;2.10;;;1.40;99.90;;;;;;4383716;32;20075;-74
2023/02/10 04:17:57;;;;;;;1.83;1.60;;;1.40;99.90;;;;;;4382932;32;20066;-74
2023/02/10 04:20:24;;;;;;;1.87;1.70;;;1.40;99.90;;;;;;4384906;32;20062;-74
2023/02/10 04:22:50;;;;;;;1.98;1.65;;;1.50;99.90;;;;;;4384433;32;20073;-74
2023/02/10 04:25:15;;;;;;;1.12;1.08;;;1.50;99.90;;;;;;4381819;32;20091;-74
2023/02/10 04:27:41;;;;;;;6.50;2.83;;;1.60;99.90;;;;;;4382619;32;20086;-74
2023/02/10 04:30:07;;;;;;;6.18;3.05;;;1.50;99.90;;;;;;4382448;32;20189;-74
2023/02/10 04:32:33;;;;;;;1.35;1.25;;;1.50;99.90;;;;;;4380700;32;20066;-74
2023/02/10 04:34:58;;;;;;;0.52;0.52;;;1.50;99.90;;;;;;4383717;32;20093;-74
2023/02/10 04:37:24;;;;;;;1.25;0.90;;;1.50;99.90;;;;;;4382052;32;20091;-74
2023/02/10 04:39:49;;;;;;;2.00;1.62;;;1.60;99.90;;;;;;4380486;32;20145;-74
2023/02/10 04:42:15;;;;;;;0.68;0.68;;;1.60;99.90;;;;;;4382219;32;20138;-74
2023/02/10 04:44:40;;;;;;;2.17;1.40;;;1.70;99.90;;;;;;4380216;32;20091;-74
2023/02/10 04:47:06;;;;;;;2.28;1.40;;;1.60;99.90;;;;;;4381399;32;20089;-74
2023/02/10 04:49:31;;;;;;;3.12;2.28;;;1.70;99.90;;;;;;4382291;32;20077;-74
2023/02/10 04:51:57;;;;;;;1.65;1.55;;;1.70;99.90;;;;;;4383660;32;20531;-74
2023/02/10 04:54:23;;;;;;;1.27;1.23;;;1.70;99.90;;;;;;4380493;32;20507;-75
2023/02/10 04:56:48;;;;;;;3.33;2.00;;;1.80;99.90;;;;;;4382415;32;20069;-75
2023/02/10 04:59:14;;;;;;;0.90;0.90;;;1.70;99.90;;;;;;4381608;32;20095;-75
2023/02/10 05:01:39;;;;;;;1.45;1.35;;;1.70;99.90;;;;;;4382366;32;20145;-74
2023/02/10 05:04:05;;;;;;;0.55;0.55;;;1.70;99.90;;;;;;4378921;32;20102;-74
2023/02/10 05:06:30;;;;;;;1.08;1.08;;;1.70;99.90;;;;;;4382830;32;20087;-74
2023/02/10 05:08:56;;;;;;;9.80;2.05;;;1.60;99.90;;;;;;4382364;32;20082;-74
2023/02/10 05:11:22;;;;;;;0.70;0.70;;;1.70;99.90;;;;;;4382633;32;20078;-74
2023/02/10 05:13:47;;;;;;;2.12;1.15;;;1.70;99.90;;;;;;4384440;32;20105;-74
2023/02/10 05:16:13;;;;;;;1.67;1.58;;;1.70;99.90;;;;;;4381941;32;20079;-74
2023/02/10 05:18:39;;;;;;;2.12;1.90;;;1.70;99.90;;;;;;4383169;32;20211;-74
2023/02/10 05:21:07;;;;;;;1.40;1.30;;;1.80;99.90;;;;;;4377792;32;20097;-74
2023/02/10 05:23:33;;;;;;;71.87;4.53;;;1.80;99.90;;;;;;4376998;32;20590;-74
2023/02/10 05:25:59;;;;;;;2.65;1.77;;;1.80;99.90;;;;;;4382402;32;20481;-74
2023/02/10 05:28:24;;;;;;;2.30;1.12;;;1.80;99.90;;;;;;4382983;32;20090;-74
2023/02/10 05:30:50;;;;;;;1.08;1.08;;;1.90;99.90;;;;;;4380741;32;20657;-74
2023/02/10 05:33:15;;;;;;;4.53;1.87;;;1.90;99.90;;;;;;4383867;32;20546;-74
2023/02/10 05:35:41;;;;;;;0.93;0.93;;;1.90;99.90;;;;;;4383042;32;20106;-75
2023/02/10 05:38:06;;;;;;;5.90;2.80;;;1.90;99.90;;;;;;4384830;32;20106;-74
2023/02/10 05:40:32;;;;;;;1.77;0.93;;;1.90;99.90;;;;;;4381528;32;20514;-74
2023/02/10 05:42:58;;;;;;;2.85;1.30;;;1.90;99.90;;;;;;4383279;32;20712;-74
2023/02/10 05:45:24;;;;;;;1.50;1.40;;;1.80;99.90;;;;;;4383511;32;20078;-74
2023/02/10 05:47:51;;;;;;;0.50;0.50;;;1.90;99.90;;;;;;4382100;32;20614;-74
2023/02/10 05:50:17;;;;;;;1.00;1.00;;;1.80;99.90;;;;;;4383190;32;20093;-74
2023/02/10 05:52:42;;;;;;;1.37;1.27;;;1.80;99.90;;;;;;4384910;32;20482;-74
2023/02/10 05:55:08;;;;;;;2.47;1.35;;;1.90;99.90;;;;;;4381268;32;20296;-75
2023/02/10 05:57:33;;;;;;;17.92;2.80;;;1.90;99.90;;;;;;4382837;32;20078;-74
2023/02/10 05:59:59;;;;;;;1.40;1.30;;;1.90;99.90;;;;;;4381637;32;20085;-74
2023/02/10 06:02:24;;;;;;;3.10;1.50;;;1.90;99.90;;;;;;4375234;32;20099;-74
2023/02/10 06:04:50;;;;;;;4.95;2.08;;;1.90;99.90;;;;;;4379696;32;20161;-74
2023/02/10 06:07:16;;;;;;;1.00;0.95;;;1.90;99.90;;;;;;4381609;32;20083;-74
2023/02/10 06:09:42;;;;;;;1.60;1.20;;;1.90;99.90;;;;;;4384012;32;20074;-75
2023/02/10 06:12:08;;;;;;;3.10;1.42;;;1.90;99.90;;;;;;4381897;32;20066;-75
2023/02/10 06:14:34;;;;;;;2.55;1.85;;;1.80;99.90;;;;;;4383885;32;20153;-75
2023/02/10 06:17:00;;;;;;;2.28;1.33;;;1.80;99.90;;;;;;4371294;32;21462;-75
2023/02/10 06:19:26;;;;;;;1.80;1.65;;;1.70;99.90;;;;;;4374966;32;20137;-74
2023/02/10 06:21:51;;;;;;;0.62;0.62;;;1.60;99.90;;;;;;4381066;32;20193;-75
2023/02/10 06:24:17;;;;;;;4.12;2.25;;;1.60;99.90;;;;;;4383695;32;20200;-74
2023/02/10 06:26:42;;;;;;;2.85;1.35;;;1.70;99.90;;;;;;4368373;32;20063;-75
2023/02/10 06:29:08;;;;;;;1.98;1.75;;;1.70;99.90;;;;;;4365549;32;20281;-74
2023/02/10 06:31:34;;;;;;;0.82;0.82;;;1.70;99.90;;;;;;4351633;32;20530;-74
2023/02/10 06:34:00;;;;;;;0.70;0.70;;;1.70;99.90;;;;;;4369145;32;20066;-74
2023/02/10 06:36:26;;;;;;;1.35;1.25;;;1.60;99.90;;;;;;4371655;32;20469;-73
2023/02/10 06:38:52;;;;;;;0.80;0.80;;;1.60;99.90;;;;;;4368893;32;20090;-74
2023/02/10 06:41:17;;;;;;;1.25;1.20;;;1.60;99.90;;;;;;4370196;32;20095;-74
2023/02/10 06:43:43;;;;;;;1.10;1.10;;;1.60;99.90;;;;;;4368363;32;20090;-74
2023/02/10 06:46:10;;;;;;;1.00;1.00;;;1.60;99.90;;;;;;4371103;32;20150;-74
2023/02/10 06:48:36;;;;;;;1.95;1.58;;;1.50;99.90;;;;;;4370899;32;20202;-74
2023/02/10 06:51:01;;;;;;;1.37;1.27;;;1.50;99.90;;;;;;4360603;32;20099;-74
2023/02/10 06:53:27;;;;;;;0.98;0.98;;;1.50;99.90;;;;;;4363788;32;20787;-74
2023/02/10 06:55:57;;;;;;;2.40;1.08;;;1.40;99.90;;;;;;4356753;32;20114;-74
2023/02/10 06:58:23;;;;;;;1.10;0.90;;;1.50;99.90;;;;;;4345409;32;20094;-73
2023/02/10 07:00:48;;;;;;;1.55;1.45;;;1.40;99.90;;;;;;4328400;32;20077;-72
2023/02/10 07:03:14;;;;;;;1.42;1.35;;;1.40;99.90;;;;;;4330136;32;20114;-73
2023/02/10 07:05:40;;;;;;;0.82;0.82;;;1.40;99.90;;;;;;4328173;32;20640;-73
2023/02/10 07:08:06;;;;;;;3.25;1.20;;;1.40;99.90;;;;;;4335994;32;20091;-73
2023/02/10 07:10:32;;;;;;;1.27;1.25;;;1.50;99.90;;;;;;4336549;32;20759;-74
2023/02/10 07:12:58;;;;;;;1.27;1.10;;;1.50;99.90;;;;;;4330295;32;20641;-74
2023/02/10 07:15:24;;;;;;;1.45;1.35;;;1.50;99.90;;;;;;4336650;32;20655;-74
2023/02/10 07:17:50;;;;;;;0.62;0.62;;;1.60;99.90;;;;;;4338266;32;20306;-72
2023/02/10 07:20:18;;;;;;;0.93;0.93;;;1.60;99.90;;;;;;4335144;32;20663;-73
2023/02/10 07:22:43;;;;;;;0.77;0.77;;;1.60;99.90;;;;;;4341109;32;20137;-74
2023/02/10 07:25:10;;;;;;;1.10;1.10;;;1.60;99.90;;;;;;4324082;32;20142;-74
2023/02/10 07:27:35;;;;;;;1.55;1.45;;;1.70;99.90;;;;;;4342285;32;20098;-75
2023/02/10 07:30:01;;;;;;;0.77;0.77;;;1.70;99.90;;;;;;4336810;32;20152;-73
2023/02/10 07:32:27;;;;;;;5.00;2.05;;;1.60;99.90;;;;;;4331444;32;20347;-74
2023/02/10 07:34:52;;;;;;;4.62;1.87;;;1.70;99.90;;;;;;4326655;32;20258;-73
2023/02/10 07:37:18;;;;;;;0.75;0.75;;;1.70;99.90;;;;;;4330821;32;20183;-73
2023/02/10 07:39:43;;;;;;;1.48;1.33;;;1.80;99.90;;;;;;4332285;32;20094;-73
2023/02/10 07:42:09;;;;;;;2.80;2.12;;;1.80;99.90;;;;;;4338869;32;20163;-72
2023/02/10 07:44:34;;;;;;;5.55;2.08;;;1.80;99.90;;;;;;4331849;32;20859;-73
2023/02/10 07:47:00;;;;;;;1.20;1.20;;;1.90;99.90;;;;;;4344548;32;20767;-73
2023/02/10 07:49:28;;;;;;;0.88;0.88;;;1.90;99.90;;;;;;4338256;32;21578;-73
2023/02/10 07:51:54;;;;;;;3.45;1.73;;;2.00;99.90;;;;;;4337342;32;20099;-73
2023/02/10 07:54:20;;;;;;;6.72;1.40;;;2.00;99.90;;;;;;4334987;32;20111;-73
2023/02/10 07:56:45;;;;;;;0.68;0.68;;;2.00;99.90;;;;;;4325597;32;20228;-73
2023/02/10 07:59:11;;;;;;;7.05;2.03;;;2.00;99.90;;;;;;4323640;32;20802;-74
2023/02/10 08:01:41;;;;;;;0.57;0.57;;;2.10;99.90;;;;;;4333426;32;20732;-73
2023/02/10 08:04:07;;;;;;;3.35;1.48;;;2.10;99.90;;;;;;4333519;32;20539;-73
2023/02/10 08:06:32;;;;;;;2.10;1.30;;;2.10;99.90;;;;;;4335574;32;20515;-74
2023/02/10 08:08:58;;;;;;;1.25;1.15;;;2.10;99.90;;;;;;4333000;32;20268;-74
2023/02/10 08:11:24;;;;;;;1.00;1.00;;;2.20;99.90;;;;;;4333352;32;20779;-73
2023/02/10 08:13:49;;;;;;;0.90;0.82;;;2.20;99.90;;;;;;4331284;32;20193;-73
2023/02/10 08:16:15;;;;;;;3.15;2.22;;;2.20;99.90;;;;;;4336241;32;20717;-74
2023/02/10 08:18:41;;;;;;;1.52;1.37;;;2.30;99.90;;;;;;4331175;32;21038;-73
2023/02/10 08:21:06;;;;;;;3.22;0.77;;;2.40;99.90;;;;;;4311966;32;20883;-73
2023/02/10 08:23:32;;;;;;;1.12;1.08;;;2.50;99.90;;;;;;4320195;32;20094;-73
2023/02/10 08:25:58;;;;;;;1.27;1.17;;;2.70;99.90;;;;;;4323717;32;20113;-74
2023/02/10 08:28:23;;;;;;;2.40;1.35;;;2.80;99.90;;;;;;4324994;32;20461;-74
2023/02/10 08:30:49;;;;;;;1.92;1.75;;;2.90;99.90;;;;;;4320420;32;20100;-73
2023/02/10 08:33:15;;;;;;;2.70;1.92;;;2.90;99.90;;;;;;4331159;32;20875;-74
2023/02/10 08:35:40;;;;;;;1.50;1.35;;;3.10;99.90;;;;;;4334088;32;20102;-74
2023/02/10 08:38:08;;;;;;;1.77;1.65;;;3.20;99.90;;;;;;4347839;32;20098;-75
2023/02/10 08:40:34;;;;;;;5.43;1.90;;;3.20;99.90;;;;;;4361595;32;20100;-73
2023/02/10 08:43:00;;;;;;;1.48;1.37;;;3.30;99.90;;;;;;4354826;32;20102;-74
2023/02/10 08:45:26;;;;;;;5.40;2.30;;;3.20;99.90;;;;;;4351535;32;20101;-74
2023/02/10 08:47:51;;;;;;;1.37;1.27;;;3.30;99.90;;;;;;4337627;32;20159;-75
2023/02/10 08:50:17;;;;;;;3.90;2.35;;;3.30;99.90;;;;;;4331780;32;20097;-75
2023/02/10 08:52:43;;;;;;;0.70;0.70;;;3.40;99.90;;;;;;4325888;32;20185;-75
2023/02/10 08:55:10;;;;;;;1.90;1.50;;;3.40;99.90;;;;;;4338156;32;20095;-75
2023/02/10 08:57:37;;;;;;;1.12;1.12;;;3.40;99.90;;;;;;4315769;32;20110;-75
2023/02/10 09:00:04;;;;;;;2.42;2.10;;;3.50;99.90;;;;;;4329766;32;20926;-75
2023/02/10 09:02:29;;;;;;;3.45;2.28;;;3.50;99.90;;;;;;4328389;32;20103;-74
2023/02/10 09:04:55;;;;;;;0.70;0.70;;;3.50;99.90;;;;;;4325411;32;20082;-75
2023/02/10 09:07:21;;;;;;;0.85;0.82;;;3.60;99.90;;;;;;4335620;32;20538;-75
2023/02/10 09:09:46;;;;;;;0.77;0.77;;;3.70;99.90;;;;;;4330153;32;21586;-75
2023/02/10 09:12:12;;;;;;;1.12;1.02;;;3.90;99.90;;;;;;4329857;32;21980;-75
2023/02/10 09:14:39;;;;;;;0.70;0.70;;;4.10;99.90;;;;;;4338661;32;20174;-75
2023/02/10 09:17:07;;;;;;;1.70;1.35;;;4.20;99.90;;;;;;4341566;32;20111;-76
2023/02/10 09:19:34;;;;;;;2.17;1.90;;;4.30;99.90;;;;;;4338184;32;20205;-75
2023/02/10 09:21:59;;;;;;;5.55;2.55;;;4.30;99.90;;;;;;4338242;32;20294;-76
2023/02/10 09:24:25;;;;;;;17.08;3.90;;;4.30;99.90;;;;;;4346087;32;20181;-76
2023/02/10 09:26:51;;;;;;;1.10;1.02;;;4.30;99.90;;;;;;4343163;32;20106;-76
2023/02/10 09:29:17;;;;;;;2.50;1.37;;;4.50;99.90;;;;;;4339313;32;20094;-75
2023/02/10 09:31:42;;;;;;;4.15;1.83;;;4.60;99.90;;;;;;4336961;32;20669;-75
2023/02/10 09:34:08;;;;;;;1.62;1.52;;;4.40;99.90;;;;;;4342736;32;20720;-75
2023/02/10 09:36:34;;;;;;;10.90;2.70;;;4.30;99.90;;;;;;4342824;32;20780;-74
2023/02/10 09:38:59;;;;;;;7.78;3.62;;;4.30;99.90;;;;;;4340285;32;20205;-75
2023/02/10 09:41:51;;;;;;;2.78;1.95;;;4.40;99.90;;;;;;4330177;32;20178;-75
2023/02/10 09:44:21;;;;;;;1.90;1.55;;;4.40;99.90;;;;;;4324431;32;20734;-76
2023/02/10 09:47:00;;;;;;;2.97;1.92;;;4.40;99.90;;;;;;4343349;32;20103;-75
2023/02/10 09:49:41;;;;;;;1.50;1.00;;;4.50;99.90;;;;;;4337040;32;21285;-75
2023/02/10 09:52:31;;;;;;;18.10;2.28;;;4.50;99.90;;;;;;4342777;32;20109;-75
2023/02/10 09:54:59;;;;;;;2.90;1.80;;;4.60;99.90;;;;;;4340269;32;20673;-74
2023/02/10 09:57:44;;;;;;;5.00;1.48;;;4.60;99.90;;;;;;4344039;32;20879;-74
2023/02/10 10:00:20;;;;;;;13.65;1.10;;;4.60;99.90;;;;;;4328853;32;20547;-73
2023/02/10 10:02:51;;;;;;;2.85;2.05;;;4.70;99.90;;;;;;4339891;32;20075;-74
2023/02/10 10:05:40;;;;;;;2.80;1.58;;;4.80;99.90;;;;;;4337711;32;20249;-75
2023/02/10 10:08:15;;;;;;;2.30;1.58;;;4.80;99.90;;;;;;4339472;32;20119;-74
2023/02/10 10:10:45;;;;;;;1.48;1.37;;;4.80;99.90;;;;;;4328032;32;20201;-74
2023/02/10 10:13:17;;;;;;;2.62;1.83;;;4.70;99.90;;;;;;4334377;32;20078;-74
2023/02/10 10:15:56;;;;;;;1.52;1.42;;;4.60;99.90;;;;;;4341244;32;20113;-73
2023/02/10 10:18:42;;;;;;;3.17;1.48;;;4.60;99.90;;;;;;4337863;32;20850;-74
2023/02/10 10:21:21;;;;;;;1.35;1.25;;;4.60;99.90;;;;;;4316612;32;20123;-74
2023/02/10 10:24:16;;;;;;;3.00;1.83;;;4.70;99.90;;;;;;4337188;32;20122;-74
2023/02/10 10:26:48;;;;;;;1.12;1.00;;;4.80;99.90;;;;;;4320065;32;20605;-75
2023/02/10 10:29:29;;;;;;;4.75;1.45;;;4.80;99.90;;;;;;4324098;32;20201;-75
2023/02/10 10:32:16;;;;;;;3.62;0.88;;;4.80;99.90;;;;;;4328867;32;20153;-75
2023/02/10 10:34:50;;;;;;;1.55;0.95;;;4.80;99.90;;;;;;4326571;32;20519;-73
2023/02/10 10:37:24;;;;;;;2.00;1.23;;;4.80;99.90;;;;;;4331699;32;20118;-74
2023/02/10 10:39:53;;;;;;;2.17;0.93;;;4.90;99.90;;;;;;4332974;32;20099;-74
2023/02/10 10:42:36;;;;;;;1.25;1.15;;;4.90;99.90;;;;;;4349678;32;20083;-73
2023/02/10 10:45:10;;;;;;;1.62;1.33;;;4.80;99.90;;;;;;4326688;32;20162;-72
2023/02/10 10:47:47;;;;;;;3.42;2.03;;;4.70;99.90;;;;;;4341617;32;20145;-72
2023/02/10 10:50:15;;;;;;;4.85;2.28;;;4.80;99.90;;;;;;4334558;32;20187;-74
2023/02/10 10:52:42;;;;;;;15.65;2.45;;;4.90;99.90;;;;;;4334823;32;23096;-74
2023/02/10 10:55:16;;;;;;;15.57;3.45;;;4.90;99.90;;;;;;4332916;32;20087;-73
2023/02/10 10:57:42;;;;;;;0.88;0.88;;;4.80;99.90;;;;;;4332066;32;20105;-73
2023/02/10 11:00:28;;;;;;;2.58;1.30;;;4.70;99.90;;;;;;4339382;32;20105;-73
2023/02/10 11:03:00;;;;;;;4.00;2.22;;;4.70;99.90;;;;;;4337871;32;20094;-74
2023/02/10 11:05:30;;;;;;;2.65;1.77;;;4.80;99.90;;;;;;4341272;32;20209;-71
2023/02/10 11:07:57;;;;;;;1.15;0.85;;;4.90;99.90;;;;;;4341971;32;20961;-74
2023/02/10 11:10:46;;;;;;;1.60;1.27;;;4.90;99.90;;;;;;4336498;32;20494;-75
2023/02/10 11:13:21;;;;;;;2.05;1.35;;;5.00;99.90;;;;;;4336181;32;20783;-75
2023/02/10 11:15:48;;;;;;;0.93;0.90;;;5.20;99.90;;;;;;4336396;32;20102;-73
2023/02/10 11:18:19;;;;;;;5.62;2.80;;;5.20;99.90;;;;;;4335571;32;20166;-72
2023/02/10 11:21:04;;;;;;;2.62;1.33;;;5.20;99.90;;;;;;4345001;32;20648;-74
2023/02/10 11:23:30;;;;;;;1.08;0.98;;;5.30;99.90;;;;;;4343679;32;20082;-72
2023/02/10 11:26:02;;;;;;;4.55;1.70;;;5.40;99.90;;;;;;4359784;32;20062;-74
2023/02/10 11:28:30;;;;;;;1.23;1.10;;;5.60;99.90;;;;;;4369448;32;20107;-73
2023/02/10 11:31:01;;;;;;;3.12;1.80;;;5.80;99.90;;;;;;4362752;32;20107;-72
2023/02/10 11:33:28;;;;;;;;;;;5.90;99.90;;;;;;4355074;32;20523;-74
2023/02/10 11:36:01;;;;;;;6.57;3.12;;;6.10;99.90;;;;;;4363799;32;20017;-74
2023/02/10 11:38:27;;;;;;;1.08;0.85;;;6.30;99.90;;;;;;4356878;32;20621;-74
2023/02/10 11:40:56;;;;;;;2.97;1.90;;;6.50;99.90;;;;;;4358351;32;20129;-74
2023/02/10 11:43:52;;;;;;;3.00;1.92;;;6.60;99.90;;;;;;4404371;32;598671;-66
2023/02/10 11:46:22;;;;;;;1.33;1.17;;;6.80;99.90;;;;;;4424403;32;20621;-67
2023/02/10 11:48:54;;;;;;;7.65;2.33;;;6.90;99.90;;;;;;4422553;32;20081;-65
2023/02/10 11:51:20;;;;;;;5.25;3.12;;;7.00;99.90;;;;;;4421707;32;20857;-67
2023/02/10 11:53:47;;;;;;;3.58;1.50;;;7.50;99.90;;;;;;4409809;32;20093;-67
2023/02/10 11:59:01;;;;;;;4.18;1.80;;;7.90;99.90;;;;;;4396761;32;20105;-67
2023/02/10 11:59:27;;;;;;;11.87;2.43;;;8.10;99.90;;;;;;4384892;32;20110;-68
2023/02/10 12:02:12;;;;;;;1.92;1.48;;;8.20;99.90;;;;;;4404861;32;20194;-67
2023/02/10 12:04:54;;;;;;;3.28;1.70;;;8.30;99.90;;;;;;4405727;32;20104;-65
2023/02/10 12:07:43;;;;;;;4.53;1.62;;;7.70;99.90;;;;;;4412255;32;20072;-66
2023/02/10 12:10:35;;;;;;;4.28;3.22;;;7.30;99.90;;;;;;4411254;32;20319;-66
2023/02/10 12:13:29;;;;;;;1.50;0.80;;;7.00;99.90;;;;;;4401788;32;20092;-66
2023/02/10 12:16:17;;;;;;;2.72;1.33;;;6.90;99.90;;;;;;4401898;32;21053;-66
2023/02/10 12:19:08;;;;;;;2.70;1.70;;;6.80;99.90;;;;;;4412034;32;20080;-67
2023/02/10 12:21:51;;;;;;;0.85;0.68;;;6.70;99.90;;;;;;4407843;32;20088;-66
2023/02/10 12:24:27;;;;;;;6.37;2.67;;;6.60;99.90;;;;;;4412536;32;20112;-65
2023/02/10 12:26:58;;;;;;;4.18;1.83;;;6.50;99.90;;;;;;4419517;32;20544;-67
2023/02/10 12:29:50;;;;;;;9.70;2.55;;;6.50;99.90;;;;;;4413787;32;20113;-67
2023/02/10 12:32:44;;;;;;;5.25;2.37;;;6.50;99.90;;;;;;4409091;32;20425;-66
2023/02/10 12:35:26;;;;;;;3.45;1.75;;;6.60;99.90;;;;;;4412413;32;20155;-67
2023/02/10 12:38:02;;;;;;;0.80;0.80;;;6.50;99.90;;;;;;4411044;32;20081;-65
2023/02/10 12:40:49;;;;;;;2.33;1.42;;;6.60;99.90;;;;;;4403117;32;20093;-66
2023/02/10 12:43:43;;;;;;;2.80;1.35;;;6.70;99.90;;;;;;4405366;32;20229;-66
2023/02/10 12:46:33;;;;;;;3.60;1.08;;;7.10;99.90;;;;;;4392083;32;20081;-65
2023/02/10 12:49:24;;;;;;;17.15;1.80;;;7.50;99.90;;;;;;4395361;32;20112;-66
2023/02/10 12:52:05;;;;;;;1.80;0.90;;;7.40;99.90;;;;;;4407162;32;20084;-66
2023/02/10 12:54:41;;;;;;;1.85;0.77;;;7.40;99.90;;;;;;4399674;32;20084;-66
2023/02/10 12:57:12;;;;;;;2.53;0.98;;;7.40;99.90;;;;;;4396674;32;20101;-66
2023/02/10 13:00:01;;;;;;;3.85;1.45;;;7.40;99.90;;;;;;4399220;32;20089;-66
2023/02/10 13:02:38;;;;;;;6.72;1.30;;;7.30;99.90;;;;;;4384084;32;20133;-67
2023/02/10 13:05:10;;;;;;;0.62;0.62;;;7.10;99.90;;;;;;4401108;32;20313;-66
2023/02/10 13:08:06;;;;;;;1.73;0.73;;;6.90;99.90;;;;;;4379151;32;20073;-67
2023/02/10 13:10:38;;;;;;;11.63;1.98;;;7.00;99.90;;;;;;4378020;32;20105;-68
2023/02/10 13:13:25;;;;;;;2.67;1.65;;;6.90;99.90;;;;;;4396099;32;20109;-67
2023/02/10 13:15:59;;;;;;;0.90;0.90;;;6.90;99.90;;;;;;4372784;32;20114;-67